LTCK/MSR METAR and TAF weather

Enter ICAO airport designator
Station Type Date Time Source
LTCK METAR 2020/06/06 12:50 UTC NOAA

LTCK 061250Z 29005KT 240V340 9999 FEW040 26/02 Q1020


Station Type Date Time Source
LTCK Decoded METAR 2020/06/06 12:50 UTC NOAA

Mus Tur-Afb , Turkey (LTCK) 38-45N 041-40E
Jun 06, 2020 - 08:50 AM EDT / 2020.06.06 1250 UTC
Wind: from the WNW (290 degrees) at 6 MPH (5 KT) (direction variable):0
Visibility: greater than 7 mile(s):0
Sky conditions: mostly clear
Temperature: 78 F (26 C)
Dew Point: 35 F (2 C)
Relative Humidity: 20%
Pressure (altimeter): 30.12 in. Hg (1020 hPa)
ob: LTCK 061250Z 29005KT 240V340 9999 FEW040 26/02 Q1020
cycle: 13

Station Type Date Time Source
LTCK TAF UTC NOAA

Error!

Example: see airport list